createdAt,value
2023-03-11T00:01:02.241Z,1.87
2023-03-11T00:03:06.024Z,1.17
2023-03-11T00:05:12.701Z,2.20
2023-03-11T00:07:16.198Z,1.77
2023-03-11T00:11:20.008Z,1.17
2023-03-11T00:13:23.537Z,1.80
2023-03-11T00:15:29.450Z,1.13
2023-03-11T00:17:32.816Z,1.30
2023-03-11T00:19:36.125Z,1.23
2023-03-11T00:21:43.736Z,1.53
2023-03-11T00:23:47.067Z,1.70
2023-03-11T00:25:50.507Z,2.00
2023-03-11T00:27:54.040Z,2.30
2023-03-11T00:29:57.399Z,1.67
2023-03-11T00:32:00.685Z,2.33
2023-03-11T00:34:03.951Z,1.77
2023-03-11T00:36:08.180Z,2.27
2023-03-11T00:38:15.521Z,2.87
2023-03-11T00:40:19.890Z,2.67
2023-03-11T00:42:24.180Z,2.83
2023-03-11T00:44:28.289Z,1.47
2023-03-11T00:46:31.617Z,3.57
2023-03-11T00:48:35.753Z,3.00
2023-03-11T00:50:39.283Z,1.87
2023-03-11T00:52:42.622Z,3.30
2023-03-11T00:54:48.080Z,2.03
2023-03-11T01:03:02.622Z,2.47
2023-03-11T01:05:06.679Z,1.13
2023-03-11T01:07:11.427Z,1.27
2023-03-11T01:09:15.167Z,1.60
2023-03-11T01:11:19.798Z,1.07
2023-03-11T01:13:29.638Z,2.53
2023-03-11T01:15:34.368Z,3.60
2023-03-11T01:17:37.719Z,8.73
2023-03-11T01:19:42.307Z,2.67
2023-03-11T01:21:45.695Z,3.73
2023-03-11T01:23:49.132Z,1.67
2023-03-11T01:25:52.424Z,2.77
2023-03-11T01:27:57.614Z,1.97
2023-03-11T01:30:00.983Z,4.53
2023-03-11T01:32:15.329Z,2.17
2023-03-11T01:34:18.851Z,2.50
2023-03-11T01:36:22.192Z,3.23
2023-03-11T01:38:28.478Z,2.83
2023-03-11T01:40:33.030Z,2.93
2023-03-11T01:42:36.350Z,5.03
2023-03-11T01:44:42.150Z,1.87
2023-03-11T01:47:20.093Z,2.60
2023-03-11T01:49:23.508Z,2.97
2023-03-11T01:51:29.992Z,1.63
2023-03-11T01:53:33.876Z,3.10
2023-03-11T01:55:37.290Z,2.13
2023-03-11T01:57:50.872Z,3.40
2023-03-11T01:59:58.318Z,4.07
2023-03-11T02:02:06.325Z,2.67
2023-03-11T02:04:11.372Z,2.83
2023-03-11T02:06:16.592Z,2.27
2023-03-11T02:08:20.179Z,2.70
2023-03-11T02:10:23.554Z,4.07
2023-03-11T02:12:27.345Z,3.43
2023-03-11T02:14:30.706Z,3.17
2023-03-11T02:16:35.413Z,3.33
2023-03-11T02:18:38.812Z,2.77
2023-03-11T02:20:47.032Z,3.07
2023-03-11T02:22:50.300Z,3.37
2023-03-11T02:24:57.479Z,2.47
2023-03-11T02:27:05.214Z,3.13
2023-03-11T02:29:08.870Z,4.50
2023-03-11T02:31:12.245Z,2.60
2023-03-11T02:33:22.647Z,2.63
2023-03-11T02:35:37.472Z,3.30
2023-03-11T02:37:46.493Z,2.80
2023-03-11T02:39:50.983Z,3.43
2023-03-11T02:41:54.412Z,2.17
2023-03-11T02:43:59.255Z,4.63
2023-03-11T02:46:03.125Z,2.80
2023-03-11T02:48:07.121Z,3.43
2023-03-11T02:50:14.204Z,2.67
2023-03-11T02:52:18.234Z,5.80
2023-03-11T02:54:22.321Z,2.50
2023-03-11T02:56:25.967Z,2.90
2023-03-11T02:58:29.314Z,4.03
2023-03-11T03:00:35.248Z,3.10
2023-03-11T03:02:38.767Z,6.00
2023-03-11T03:04:42.186Z,2.90
2023-03-11T03:06:45.784Z,3.40
2023-03-11T03:08:49.317Z,6.67
2023-03-11T03:10:53.653Z,3.00
2023-03-11T03:12:57.116Z,4.07
2023-03-11T03:15:00.943Z,4.37
2023-03-11T03:17:05.896Z,2.93
2023-03-11T03:19:09.393Z,4.80
2023-03-11T03:21:12.801Z,4.03
2023-03-11T03:23:19.407Z,2.67
2023-03-11T03:25:23.565Z,5.77
2023-03-11T03:27:27.142Z,3.77
2023-03-11T03:29:30.970Z,4.33
2023-03-11T03:31:34.428Z,5.10
2023-03-11T03:33:40.179Z,2.13
2023-03-11T03:35:46.277Z,4.00
2023-03-11T03:37:49.732Z,7.07
2023-03-11T03:39:53.179Z,4.73
2023-03-11T03:41:56.468Z,5.23
2023-03-11T03:43:59.960Z,3.77
2023-03-11T03:46:04.341Z,5.40
2023-03-11T03:48:08.396Z,4.20
2023-03-11T03:50:13.935Z,3.17
2023-03-11T03:52:19.100Z,3.53
2023-03-11T03:54:22.467Z,3.23
2023-03-11T03:56:28.561Z,2.43
2023-03-11T03:58:32.778Z,3.40
2023-03-11T04:00:36.124Z,4.20
2023-03-11T04:02:57.479Z,4.67
2023-03-11T04:05:01.277Z,5.07
2023-03-11T04:07:06.889Z,5.50
2023-03-11T04:09:10.809Z,2.60
2023-03-11T04:11:14.448Z,4.13
2023-03-11T04:13:17.821Z,4.73
2023-03-11T04:15:22.666Z,6.90
2023-03-11T04:17:25.969Z,4.87
2023-03-11T04:19:29.221Z,6.87
2023-03-11T04:21:36.472Z,4.37
2023-03-11T04:23:41.321Z,5.87
2023-03-11T04:25:44.756Z,7.57
2023-03-11T04:27:50.220Z,4.87
2023-03-11T04:29:53.821Z,4.60
2023-03-11T04:31:57.213Z,7.00
2023-03-11T04:34:01.134Z,5.83
2023-03-11T04:36:12.482Z,3.33
2023-03-11T04:38:22.423Z,6.20
2023-03-11T04:40:27.492Z,4.43
2023-03-11T04:42:30.900Z,5.83
2023-03-11T04:44:36.484Z,5.47
2023-03-11T04:46:40.121Z,4.87
2023-03-11T04:48:43.474Z,6.00
2023-03-11T04:50:46.959Z,2.87
2023-03-11T04:52:50.293Z,4.33
2023-03-11T04:54:55.435Z,5.20
2023-03-11T04:57:02.001Z,7.03
2023-03-11T04:59:05.585Z,4.73
2023-03-11T05:01:09.782Z,6.63
2023-03-11T05:03:13.281Z,7.13
2023-03-11T05:05:16.946Z,4.80
2023-03-11T05:07:20.423Z,6.43
2023-03-11T05:09:28.943Z,6.03
2023-03-11T05:11:32.739Z,5.93
2023-03-11T05:13:38.478Z,3.37
2023-03-11T05:15:42.691Z,8.03
2023-03-11T05:17:49.513Z,4.50
2023-03-11T05:19:53.794Z,6.80
2023-03-11T05:22:07.908Z,6.80
2023-03-11T05:24:11.624Z,6.30
2023-03-11T05:26:15.206Z,7.53
2023-03-11T05:28:19.089Z,6.43
2023-03-11T05:30:23.935Z,3.97
2023-03-11T05:32:27.365Z,5.17
2023-03-11T05:34:30.912Z,8.77
2023-03-11T05:36:34.701Z,8.37
2023-03-11T05:38:41.970Z,5.80
2023-03-11T05:40:45.782Z,5.77
2023-03-11T05:42:49.701Z,4.67
2023-03-11T05:44:53.255Z,4.37
2023-03-11T05:46:58.341Z,8.17
2023-03-11T05:49:01.965Z,4.83
2023-03-11T05:51:08.477Z,3.83
2023-03-11T05:53:12.195Z,5.23
2023-03-11T05:55:15.701Z,4.80
2023-03-11T05:57:20.198Z,7.73
2023-03-11T05:59:24.530Z,6.90
2023-03-11T06:01:28.183Z,9.27
2023-03-11T06:03:33.136Z,4.60
2023-03-11T06:05:36.740Z,5.77
2023-03-11T06:07:40.321Z,5.50
2023-03-11T06:09:43.890Z,7.07
2023-03-11T06:11:48.250Z,9.17
2023-03-11T06:13:54.015Z,8.23
2023-03-11T06:20:06.975Z,9.77
2023-03-11T06:22:12.263Z,8.67
2023-03-11T06:24:16.983Z,5.43
2023-03-11T06:26:21.553Z,6.73
2023-03-11T06:28:25.987Z,7.70
2023-03-11T06:30:29.611Z,9.80
2023-03-11T06:32:34.636Z,9.87
2023-03-11T06:34:38.378Z,6.70
2023-03-11T06:36:42.048Z,7.37
2023-03-11T06:38:47.266Z,9.33
2023-03-11T06:40:51.354Z,8.70
2023-03-11T06:42:55.032Z,5.77
2023-03-11T06:44:58.619Z,9.60
2023-03-11T06:47:03.688Z,6.10
2023-03-11T06:49:07.587Z,9.13
2023-03-11T06:51:11.468Z,6.47
2023-03-11T06:53:15.181Z,6.73
2023-03-11T06:55:21.358Z,5.43
2023-03-11T06:57:24.868Z,8.63
2023-03-11T06:59:29.293Z,6.33
2023-03-11T07:01:33.071Z,6.50
2023-03-11T07:03:36.732Z,8.10
2023-03-11T07:05:40.323Z,6.50
2023-03-11T07:07:43.937Z,6.07
2023-03-11T07:09:47.610Z,5.33
2023-03-11T07:11:55.679Z,4.57
2023-03-11T07:14:01.721Z,5.70
2023-03-11T07:16:06.559Z,5.63
2023-03-11T07:21:37.066Z,8.00
2023-03-11T07:23:40.650Z,8.37
2023-03-11T07:25:48.380Z,6.50
2023-03-11T07:31:14.281Z,5.93
2023-03-11T07:33:18.482Z,6.50
2023-03-11T07:35:22.100Z,7.00
2023-03-11T07:37:26.396Z,7.93
2023-03-11T07:39:30.380Z,5.63
2023-03-11T07:41:35.050Z,8.70
2023-03-11T07:43:39.130Z,5.50
2023-03-11T07:45:43.056Z,6.50
2023-03-11T07:47:48.178Z,6.23
2023-03-11T07:49:51.684Z,9.20
2023-03-11T07:51:56.401Z,7.53
2023-03-11T07:54:18.712Z,9.83
2023-03-11T07:56:23.120Z,8.77
2023-03-11T07:58:26.860Z,8.03
2023-03-11T08:00:30.356Z,6.90
2023-03-11T08:02:34.872Z,7.60
2023-03-11T08:04:39.940Z,6.80
2023-03-11T08:06:44.116Z,7.03
2023-03-11T08:08:48.160Z,8.47
2023-03-11T08:10:52.054Z,10.07
2023-03-11T08:12:55.403Z,4.97
2023-03-11T08:15:01.992Z,5.67
2023-03-11T08:17:06.101Z,3.70
2023-03-11T08:19:11.764Z,5.73
2023-03-11T08:21:17.534Z,4.53
2023-03-11T08:23:21.282Z,6.97
2023-03-11T08:25:24.857Z,3.87
2023-03-11T08:27:29.759Z,7.73
2023-03-11T08:29:33.276Z,6.53
2023-03-11T08:31:37.089Z,6.90
2023-03-11T08:33:40.778Z,4.20
2023-03-11T08:37:46.308Z,8.17
2023-03-11T08:39:50.250Z,8.57
2023-03-11T08:41:53.901Z,5.73
2023-03-11T08:44:42.510Z,3.80
2023-03-11T08:46:46.316Z,3.90
2023-03-11T08:48:50.443Z,5.40
2023-03-11T08:50:54.890Z,6.73
2023-03-11T08:53:03.324Z,2.43
2023-03-11T08:55:09.246Z,6.10
2023-03-11T08:57:13.237Z,6.17
2023-03-11T08:59:17.241Z,5.13
2023-03-11T09:01:31.627Z,5.30
2023-03-11T09:06:20.075Z,6.10
2023-03-11T09:14:19.661Z,4.90
2023-03-11T09:27:03.786Z,3.10
2023-03-11T09:31:54.215Z,4.00
2023-03-11T09:49:43.136Z,3.87
2023-03-11T09:51:49.467Z,2.10
2023-03-11T09:53:55.430Z,3.30
2023-03-11T09:56:00.731Z,3.43
2023-03-11T09:59:04.089Z,3.73
2023-03-11T10:01:14.453Z,4.60
2023-03-11T10:03:27.288Z,3.10
2023-03-11T10:05:31.107Z,3.93
2023-03-11T10:08:15.232Z,3.30
2023-03-11T10:10:19.134Z,2.27
2023-03-11T10:12:37.458Z,4.27
2023-03-11T10:15:01.678Z,2.80
2023-03-11T10:17:25.662Z,3.80
2023-03-11T10:19:35.774Z,4.47
2023-03-11T10:21:45.847Z,4.20
2023-03-11T10:24:00.290Z,2.53
2023-03-11T10:26:07.340Z,2.97
2023-03-11T10:28:13.676Z,5.53
2023-03-11T10:30:25.359Z,2.47
2023-03-11T10:35:51.737Z,3.53
2023-03-11T10:37:56.157Z,3.57
2023-03-11T10:40:00.357Z,5.33
2023-03-11T10:42:04.872Z,2.97
2023-03-11T10:44:11.464Z,2.67
2023-03-11T10:46:24.928Z,5.10
2023-03-11T10:48:29.957Z,2.53
2023-03-11T10:50:36.681Z,2.70
2023-03-11T10:53:01.510Z,2.47
2023-03-11T10:55:07.909Z,3.67
2023-03-11T10:57:26.559Z,2.20
2023-03-11T10:59:33.092Z,4.40
2023-03-11T11:01:42.671Z,3.15
2023-03-11T11:03:49.460Z,4.32
2023-03-11T11:06:02.286Z,3.25
2023-03-11T11:08:08.028Z,5.57
2023-03-11T11:10:16.285Z,3.60
2023-03-11T11:12:59.313Z,2.17
2023-03-11T11:15:02.841Z,5.40
2023-03-11T11:17:06.980Z,4.35
2023-03-11T11:19:13.206Z,4.57
2023-03-11T11:21:17.369Z,5.63
2023-03-11T11:23:27.466Z,3.78
2023-03-11T11:25:35.168Z,5.65
2023-03-11T11:28:17.675Z,3.70
2023-03-11T11:30:21.717Z,2.67
2023-03-11T11:32:26.833Z,2.83
2023-03-11T11:34:33.247Z,2.90
2023-03-11T11:36:38.710Z,1.92
2023-03-11T11:38:42.226Z,3.72
2023-03-11T11:40:48.426Z,4.40
2023-03-11T11:42:53.534Z,4.07
2023-03-11T11:44:58.766Z,2.10
2023-03-11T11:48:01.591Z,3.43
2023-03-11T11:50:08.065Z,2.73
2023-03-11T11:52:14.209Z,3.83
2023-03-11T11:54:19.631Z,2.97
2023-03-11T11:56:25.674Z,3.92
2023-03-11T11:58:29.287Z,3.93
2023-03-11T12:01:00.077Z,3.20
2023-03-11T12:03:13.733Z,5.57
2023-03-11T12:05:20.255Z,3.28
2023-03-11T12:07:34.241Z,3.53
2023-03-11T12:09:39.628Z,3.50
2023-03-11T12:11:48.189Z,2.67
2023-03-11T12:14:03.322Z,4.13
2023-03-11T12:16:11.004Z,2.40
2023-03-11T12:18:17.267Z,3.63
2023-03-11T12:20:33.008Z,4.15
2023-03-11T12:23:02.302Z,4.20
2023-03-11T12:25:26.117Z,4.20
2023-03-11T12:27:30.951Z,3.40
2023-03-11T12:29:35.524Z,2.10
2023-03-11T12:32:29.982Z,3.67
2023-03-11T12:34:35.305Z,3.80
2023-03-11T12:36:41.190Z,1.80
2023-03-11T12:38:48.140Z,2.95
2023-03-11T12:41:02.394Z,2.42
2023-03-11T12:43:06.099Z,2.25
2023-03-11T12:45:49.045Z,4.68
2023-03-11T12:48:25.958Z,4.35
2023-03-11T12:50:40.708Z,3.63
2023-03-11T12:52:55.616Z,6.32
2023-03-11T12:55:40.939Z,4.55
2023-03-11T12:57:50.944Z,3.67
2023-03-11T13:00:33.005Z,2.80
2023-03-11T13:03:09.703Z,2.97
2023-03-11T13:05:17.627Z,4.78
2023-03-11T13:07:44.594Z,3.50
2023-03-11T13:10:01.196Z,4.55
2023-03-11T13:12:04.913Z,5.72
2023-03-11T13:14:30.426Z,2.90
2023-03-11T13:16:46.149Z,4.47
2023-03-11T13:18:51.881Z,3.35
2023-03-11T13:20:59.030Z,3.17
2023-03-11T13:23:17.011Z,2.22
2023-03-11T13:25:30.442Z,5.30
2023-03-11T13:29:59.399Z,3.78
2023-03-11T13:32:27.095Z,3.20
2023-03-11T13:34:32.302Z,3.53
2023-03-11T13:36:58.897Z,3.30
2023-03-11T13:39:49.562Z,2.57
2023-03-11T13:41:54.453Z,1.93
2023-03-11T13:43:59.157Z,3.40
2023-03-11T13:46:03.141Z,3.75
2023-03-11T13:48:08.894Z,2.95
2023-03-11T13:50:17.756Z,4.05
2023-03-11T13:52:25.902Z,5.68
2023-03-11T13:54:43.183Z,4.07
2023-03-11T13:56:49.271Z,5.60
2023-03-11T13:58:54.197Z,2.25
2023-03-11T14:00:58.378Z,3.00
2023-03-11T14:03:04.987Z,6.68
2023-03-11T14:05:08.869Z,3.85
2023-03-11T14:07:16.031Z,4.00
2023-03-11T14:09:22.233Z,1.95
2023-03-11T14:11:27.850Z,6.53
2023-03-11T14:13:40.931Z,5.18
2023-03-11T14:15:48.997Z,6.82
2023-03-11T14:17:53.008Z,5.07
2023-03-11T14:20:07.037Z,2.92
2023-03-11T14:22:11.116Z,3.25
2023-03-11T14:24:17.609Z,2.55
2023-03-11T14:26:21.579Z,2.25
2023-03-11T14:28:26.078Z,3.78
2023-03-11T14:30:32.839Z,5.53
2023-03-11T14:33:17.443Z,2.63
2023-03-11T14:35:21.930Z,4.32
2023-03-11T14:37:27.428Z,4.25
2023-03-11T14:39:32.269Z,4.43
2023-03-11T14:42:00.313Z,3.20
2023-03-11T14:44:05.141Z,2.90
2023-03-11T14:46:09.014Z,2.83
2023-03-11T14:48:16.770Z,3.83
2023-03-11T14:50:21.008Z,3.25
2023-03-11T14:52:37.434Z,3.60
2023-03-11T14:54:40.994Z,2.72
2023-03-11T14:56:46.375Z,4.50
2023-03-11T14:59:06.459Z,5.35
2023-03-11T15:01:13.018Z,1.63
2023-03-11T15:03:48.254Z,2.85
2023-03-11T15:05:52.887Z,1.92
2023-03-11T15:08:00.071Z,3.92
2023-03-11T15:10:03.951Z,3.17
2023-03-11T15:12:58.332Z,5.18
2023-03-11T15:15:01.997Z,2.08
2023-03-11T15:17:42.554Z,3.75
2023-03-11T15:19:50.236Z,2.55
2023-03-11T15:25:20.232Z,4.40
2023-03-11T15:27:30.317Z,5.60
2023-03-11T15:29:34.371Z,4.38
2023-03-11T15:35:03.408Z,4.57
2023-03-11T15:37:19.461Z,2.85
2023-03-11T15:39:26.814Z,3.03
2023-03-11T15:41:30.250Z,4.05
2023-03-11T15:43:33.975Z,4.18
2023-03-11T15:45:37.519Z,3.25
2023-03-11T15:47:41.022Z,3.25
2023-03-11T15:49:44.426Z,3.50
2023-03-11T15:51:49.407Z,4.25
2023-03-11T15:53:53.479Z,5.10
2023-03-11T15:56:06.612Z,2.90
2023-03-11T15:58:22.077Z,6.50
2023-03-11T16:00:25.695Z,3.55
2023-03-11T16:02:30.405Z,2.92
2023-03-11T16:04:34.237Z,2.70
2023-03-11T16:06:37.818Z,3.67
2023-03-11T16:08:44.549Z,3.35
2023-03-11T16:10:48.135Z,2.25
2023-03-11T16:13:06.966Z,2.50
2023-03-11T16:15:17.759Z,4.43
2023-03-11T16:17:23.532Z,3.35
2023-03-11T16:19:27.283Z,3.33
2023-03-11T16:21:34.977Z,2.15
2023-03-11T16:23:50.717Z,3.08
2023-03-11T16:25:58.954Z,5.00
2023-03-11T16:28:17.859Z,3.47
2023-03-11T16:30:21.845Z,3.15
2023-03-11T16:32:25.869Z,2.03
2023-03-11T16:34:29.189Z,2.80
2023-03-11T16:36:32.794Z,2.72
2023-03-11T16:38:43.818Z,3.88
2023-03-11T16:40:47.371Z,4.53
2023-03-11T16:46:18.223Z,2.65
2023-03-11T16:48:21.647Z,2.78
2023-03-11T16:50:25.403Z,3.40
2023-03-11T16:53:07.544Z,6.30
2023-03-11T16:55:11.584Z,2.83
2023-03-11T16:57:15.409Z,5.40
2023-03-11T16:59:18.786Z,4.33
2023-03-11T17:01:23.731Z,1.92
2023-03-11T17:03:31.556Z,3.67
2023-03-11T17:05:38.077Z,3.92
2023-03-11T17:08:44.167Z,1.77
2023-03-11T17:10:47.811Z,3.60
2023-03-11T17:12:51.060Z,3.43
2023-03-11T17:14:54.939Z,4.13
2023-03-11T17:16:59.871Z,3.93
2023-03-11T17:22:29.409Z,4.57
2023-03-11T17:24:33.010Z,5.17
2023-03-11T17:26:36.644Z,4.53
2023-03-11T17:28:41.017Z,3.43
2023-03-11T17:30:44.931Z,2.20
2023-03-11T17:32:50.000Z,3.03
2023-03-11T17:34:53.511Z,3.73
2023-03-11T17:36:57.837Z,2.90
2023-03-11T17:39:01.499Z,3.43
2023-03-11T17:41:08.730Z,2.57
2023-03-11T17:43:12.407Z,2.73
2023-03-11T17:46:03.397Z,4.93
2023-03-11T17:48:08.454Z,4.57
2023-03-11T17:50:13.416Z,3.63
2023-03-11T17:52:16.904Z,4.80
2023-03-11T17:54:20.603Z,3.97
2023-03-11T17:56:24.083Z,3.37
2023-03-11T17:58:27.775Z,6.23
2023-03-11T18:01:07.517Z,3.57
2023-03-11T18:03:12.240Z,4.50
2023-03-11T18:05:18.542Z,5.13
2023-03-11T18:07:23.630Z,2.67
2023-03-11T18:09:27.229Z,3.60
2023-03-11T18:11:31.521Z,2.37
2023-03-11T18:13:35.078Z,1.67
2023-03-11T18:15:38.497Z,3.63
2023-03-11T18:18:22.421Z,3.53
2023-03-11T18:20:27.428Z,2.40
2023-03-11T18:22:31.258Z,4.33
2023-03-11T18:24:36.457Z,3.40
2023-03-11T18:26:40.021Z,2.37
2023-03-11T18:28:43.862Z,4.37
2023-03-11T18:35:03.606Z,4.07
2023-03-11T18:37:08.616Z,7.40
2023-03-11T18:39:13.958Z,5.93
2023-03-11T18:41:36.195Z,7.97
2023-03-11T18:43:40.768Z,6.43
2023-03-11T18:45:44.402Z,6.73
2023-03-11T18:47:47.973Z,9.43
2023-03-11T18:49:51.403Z,5.80
2023-03-11T18:51:55.234Z,5.03
2023-03-11T18:54:00.165Z,6.37
2023-03-11T18:56:04.319Z,8.27
2023-03-11T18:58:09.593Z,7.40
2023-03-11T19:00:13.788Z,7.40
2023-03-11T19:02:17.391Z,7.43
2023-03-11T19:04:20.977Z,7.93
2023-03-11T19:06:24.775Z,10.30
2023-03-11T19:08:28.110Z,8.67
2023-03-11T19:13:59.576Z,6.77
2023-03-11T19:16:02.990Z,10.83
2023-03-11T19:18:07.570Z,7.70
2023-03-11T19:20:12.427Z,8.07
2023-03-11T19:22:15.932Z,8.10
2023-03-11T19:24:20.223Z,7.60
2023-03-11T19:26:41.509Z,5.80
2023-03-11T19:28:47.029Z,6.63
2023-03-11T19:30:53.555Z,6.83
2023-03-11T19:32:57.311Z,6.90
2023-03-11T19:35:00.859Z,7.53
2023-03-11T19:37:04.610Z,11.03
2023-03-11T19:39:08.047Z,7.53
2023-03-11T19:41:15.806Z,12.13
2023-03-11T19:43:19.584Z,6.13
2023-03-11T19:48:40.597Z,6.67
2023-03-11T19:50:47.248Z,6.27
2023-03-11T19:52:50.770Z,6.20
2023-03-11T19:54:55.056Z,6.90
2023-03-11T19:56:58.506Z,5.80
2023-03-11T19:59:02.163Z,5.80
2023-03-11T20:04:33.118Z,6.30
2023-03-11T20:06:36.746Z,6.07
2023-03-11T20:08:40.374Z,6.33
2023-03-11T20:10:44.926Z,4.13
2023-03-11T20:13:01.467Z,5.50
2023-03-11T20:15:06.339Z,6.83
2023-03-11T20:17:10.043Z,6.40
2023-03-11T20:22:40.825Z,8.67
2023-03-11T20:24:45.271Z,7.53
2023-03-11T20:26:51.097Z,9.87
2023-03-11T20:28:56.644Z,8.13
2023-03-11T20:31:39.095Z,6.47
2023-03-11T20:33:43.973Z,6.13
2023-03-11T20:35:47.704Z,6.00
2023-03-11T20:37:52.960Z,4.33
2023-03-11T20:39:56.481Z,6.20
2023-03-11T20:42:00.257Z,7.13
2023-03-11T20:44:03.840Z,7.53
2023-03-11T20:46:07.746Z,3.77
2023-03-11T20:48:11.381Z,5.20
2023-03-11T20:50:15.007Z,4.93
2023-03-11T20:52:18.840Z,6.97
2023-03-11T20:54:23.920Z,4.23
2023-03-11T20:56:28.093Z,5.57
2023-03-11T20:58:31.870Z,4.30
2023-03-11T21:00:35.889Z,5.10
2023-03-11T21:02:40.150Z,5.83
2023-03-11T21:04:45.309Z,7.07
2023-03-11T21:06:49.922Z,3.67
2023-03-11T21:08:55.700Z,4.70
2023-03-11T21:11:02.718Z,5.17
2023-03-11T21:13:06.932Z,5.57
2023-03-11T21:15:11.285Z,5.63
2023-03-11T21:17:16.487Z,6.60
2023-03-11T21:22:35.624Z,7.87
2023-03-11T21:24:39.150Z,7.00
2023-03-11T21:26:44.184Z,7.20
2023-03-11T21:28:47.971Z,8.47
2023-03-11T21:30:59.803Z,6.80
2023-03-11T21:33:03.219Z,9.97
2023-03-11T21:35:08.066Z,7.40
2023-03-11T21:37:12.184Z,9.33
2023-03-11T21:39:18.074Z,7.13
2023-03-11T21:41:23.989Z,6.73
2023-03-11T21:43:32.532Z,8.27
2023-03-11T21:45:36.127Z,8.07
2023-03-11T21:47:40.009Z,6.57
2023-03-11T21:49:43.426Z,11.40
2023-03-11T21:51:47.180Z,7.30
2023-03-11T21:53:50.667Z,8.73
2023-03-11T21:55:54.828Z,5.90
2023-03-11T22:01:25.888Z,8.50
2023-03-11T22:03:30.730Z,8.40
2023-03-11T22:05:37.734Z,8.87
2023-03-11T22:07:41.637Z,10.20
2023-03-11T22:09:45.084Z,6.10
2023-03-11T22:11:48.622Z,8.97
2023-03-11T22:13:52.879Z,7.97
2023-03-11T22:15:56.751Z,6.10
2023-03-11T22:18:04.683Z,9.00
2023-03-11T22:20:10.275Z,7.43
2023-03-11T22:22:13.821Z,6.53
2023-03-11T22:24:17.374Z,8.67
2023-03-11T22:26:20.907Z,6.87
2023-03-11T22:28:25.020Z,5.90
2023-03-11T22:30:28.381Z,9.17
2023-03-11T22:32:31.968Z,8.37
2023-03-11T22:34:36.871Z,6.37
2023-03-11T22:36:40.499Z,8.50
2023-03-11T22:38:45.139Z,5.50
2023-03-11T22:40:48.497Z,10.27
2023-03-11T22:42:51.937Z,8.37
2023-03-11T22:44:55.448Z,8.47
2023-03-11T22:46:58.903Z,6.67
2023-03-11T22:49:02.318Z,8.93
2023-03-11T22:51:07.694Z,7.73
2023-03-11T22:53:11.701Z,6.27
2023-03-11T22:55:15.152Z,7.60
2023-03-11T22:57:18.486Z,7.17
2023-03-11T22:59:21.998Z,7.93
2023-03-11T23:01:26.400Z,10.23
2023-03-11T23:03:29.964Z,6.37
2023-03-11T23:05:40.966Z,8.63
2023-03-11T23:07:46.898Z,7.37
2023-03-11T23:09:50.343Z,10.03
2023-03-11T23:11:53.970Z,6.27
2023-03-11T23:13:57.522Z,7.80
2023-03-11T23:16:05.038Z,8.13
2023-03-11T23:18:08.775Z,4.77
2023-03-11T23:20:13.762Z,7.30
2023-03-11T23:22:20.074Z,6.47
2023-03-11T23:24:24.854Z,4.93
2023-03-11T23:26:28.381Z,4.83
2023-03-11T23:29:24.518Z,6.00
2023-03-11T23:31:27.977Z,7.70
2023-03-11T23:33:31.476Z,7.87
2023-03-11T23:35:34.859Z,6.63
2023-03-11T23:37:38.498Z,7.33
2023-03-11T23:39:43.961Z,6.37
2023-03-11T23:41:47.250Z,6.43
2023-03-11T23:43:51.056Z,5.87
2023-03-11T23:45:55.263Z,4.40
2023-03-11T23:47:58.656Z,7.67
2023-03-11T23:50:01.977Z,5.33
2023-03-11T23:52:06.016Z,6.10
2023-03-11T23:54:09.287Z,7.07
2023-03-11T23:56:15.467Z,8.27
